createdAt,value
2022-11-13T00:01:18.645Z,39.15
2022-11-13T00:03:46.531Z,38.05
2022-11-13T00:06:15.402Z,37.00
2022-11-13T00:08:43.668Z,40.00
2022-11-13T00:11:14.813Z,34.75
2022-11-13T00:13:43.071Z,35.70
2022-11-13T00:16:12.788Z,39.42
2022-11-13T00:18:42.757Z,42.17
2022-11-13T00:21:14.006Z,41.13
2022-11-13T00:23:41.844Z,41.03
2022-11-13T00:26:12.959Z,39.95
2022-11-13T00:28:41.155Z,39.38
2022-11-13T00:31:10.166Z,37.85
2022-11-13T00:34:05.407Z,38.85
2022-11-13T00:36:28.747Z,30.45
2022-11-13T00:38:56.833Z,33.83
2022-11-13T00:41:25.374Z,36.45
2022-11-13T00:43:53.313Z,36.80
2022-11-13T00:46:21.357Z,30.02
2022-11-13T00:48:49.094Z,35.78
2022-11-13T00:51:16.828Z,36.85
2022-11-13T00:53:45.906Z,36.33
2022-11-13T00:56:13.734Z,39.65
2022-11-13T00:58:41.478Z,38.10
2022-11-13T01:01:12.328Z,35.30
2022-11-13T01:03:40.715Z,35.20
2022-11-13T01:06:13.442Z,36.17
2022-11-13T01:08:41.196Z,33.65
2022-11-13T01:11:12.119Z,29.73
2022-11-13T01:13:40.449Z,39.67
2022-11-13T01:16:10.979Z,35.15
2022-11-13T01:18:39.080Z,35.53
2022-11-13T01:21:09.498Z,30.40
2022-11-13T01:23:37.401Z,28.55
2022-11-13T01:26:06.949Z,27.95
2022-11-13T01:28:36.082Z,29.13
2022-11-13T01:31:06.344Z,33.25
2022-11-13T01:33:34.152Z,33.80
2022-11-13T01:36:02.782Z,32.08
2022-11-13T01:38:35.769Z,29.10
2022-11-13T01:41:03.879Z,30.55
2022-11-13T01:43:33.482Z,32.63
2022-11-13T01:46:15.351Z,26.42
2022-11-13T01:48:46.722Z,28.23
2022-11-13T01:51:19.888Z,31.17
2022-11-13T01:53:49.065Z,28.77
2022-11-13T01:56:18.220Z,23.35
2022-11-13T01:58:50.002Z,23.50
2022-11-13T02:01:19.171Z,23.80
2022-11-13T02:03:46.907Z,22.30
2022-11-13T02:06:15.095Z,27.27
2022-11-13T02:08:44.422Z,30.23
2022-11-13T02:11:12.537Z,27.67
2022-11-13T02:13:40.842Z,32.30
2022-11-13T02:16:11.354Z,27.98
2022-11-13T02:18:41.359Z,28.83
2022-11-13T02:21:19.466Z,29.08
2022-11-13T02:23:54.336Z,27.23
2022-11-13T02:26:27.461Z,25.38
2022-11-13T02:28:55.273Z,24.80
2022-11-13T02:31:22.938Z,28.70
2022-11-13T02:33:50.636Z,27.40
2022-11-13T02:36:22.183Z,28.13
2022-11-13T02:38:51.395Z,28.52
2022-11-13T02:41:19.145Z,25.30
2022-11-13T02:43:48.266Z,26.85
2022-11-13T02:46:15.949Z,27.48
2022-11-13T02:48:43.620Z,25.85
2022-11-13T02:51:11.337Z,27.13
2022-11-13T02:53:39.069Z,28.10
2022-11-13T02:56:07.494Z,27.40
2022-11-13T02:58:35.341Z,32.22
2022-11-13T03:01:05.149Z,28.63
2022-11-13T03:03:56.408Z,24.98
2022-11-13T03:06:20.536Z,28.30
2022-11-13T03:08:48.426Z,25.15
2022-11-13T03:11:16.130Z,26.42
2022-11-13T03:13:43.828Z,28.08
2022-11-13T03:16:14.841Z,25.65
2022-11-13T03:18:42.754Z,29.85
2022-11-13T03:21:13.083Z,28.58
2022-11-13T03:23:44.991Z,31.38
2022-11-13T03:26:15.770Z,30.08
2022-11-13T03:28:44.302Z,26.45
2022-11-13T03:31:14.124Z,29.15
2022-11-13T03:33:42.018Z,30.45
2022-11-13T03:36:09.958Z,30.58
2022-11-13T03:38:37.956Z,28.63
2022-11-13T03:41:06.144Z,33.10
2022-11-13T03:43:33.841Z,28.73
2022-11-13T03:46:01.596Z,33.83
2022-11-13T03:48:30.922Z,29.63
2022-11-13T03:50:58.957Z,31.80
2022-11-13T03:53:26.954Z,32.97
2022-11-13T03:55:54.658Z,32.08
2022-11-13T03:58:22.376Z,44.28
2022-11-13T04:00:51.720Z,42.75
2022-11-13T04:03:20.103Z,39.17
2022-11-13T04:05:51.068Z,34.95
2022-11-13T04:08:19.396Z,38.75
2022-11-13T04:10:47.229Z,36.28
2022-11-13T04:13:15.020Z,41.80
2022-11-13T04:15:45.114Z,39.45
2022-11-13T04:18:13.009Z,38.00
2022-11-13T04:20:40.699Z,41.50
2022-11-13T04:23:12.601Z,42.72
2022-11-13T04:25:40.370Z,45.20
2022-11-13T04:28:08.093Z,45.47
2022-11-13T04:30:35.758Z,42.38
2022-11-13T04:33:03.481Z,39.92
2022-11-13T04:35:31.185Z,37.05
2022-11-13T04:37:58.857Z,39.78
2022-11-13T04:40:27.943Z,35.00
2022-11-13T04:42:54.645Z,38.05
2022-11-13T04:45:27.438Z,36.47
2022-11-13T04:47:55.213Z,38.67
2022-11-13T04:50:23.353Z,34.63
2022-11-13T04:52:51.398Z,36.53
2022-11-13T04:55:19.179Z,36.28
2022-11-13T04:57:51.463Z,45.15
2022-11-13T05:00:19.710Z,35.22
2022-11-13T05:02:47.461Z,31.80
2022-11-13T05:05:15.180Z,48.22
2022-11-13T05:07:43.480Z,43.60
2022-11-13T05:10:11.217Z,42.88
2022-11-13T05:12:38.884Z,46.55
2022-11-13T05:15:09.273Z,45.20
2022-11-13T05:17:37.074Z,45.15
2022-11-13T05:20:05.421Z,37.40
2022-11-13T05:22:33.097Z,36.35
2022-11-13T05:25:00.851Z,34.88
2022-11-13T05:27:28.519Z,39.50
2022-11-13T05:29:56.262Z,43.05
2022-11-13T05:32:25.357Z,34.88
2022-11-13T05:34:53.093Z,42.78
2022-11-13T05:37:20.898Z,40.30
2022-11-13T05:39:48.631Z,32.63
2022-11-13T05:42:16.387Z,43.33
2022-11-13T05:44:44.271Z,40.05
2022-11-13T05:47:11.943Z,42.72
2022-11-13T05:49:41.029Z,35.90
2022-11-13T05:52:08.774Z,47.05
2022-11-13T05:54:37.066Z,42.00
2022-11-13T05:57:04.943Z,45.33
2022-11-13T05:59:32.671Z,35.97
2022-11-13T06:02:02.510Z,39.05
2022-11-13T06:04:30.261Z,38.45
2022-11-13T06:06:59.362Z,37.13
2022-11-13T06:09:27.130Z,36.22
2022-11-13T06:11:54.779Z,35.13
2022-11-13T06:14:22.449Z,36.30
2022-11-13T06:16:50.154Z,31.95
2022-11-13T06:19:17.855Z,24.48
2022-11-13T06:21:45.548Z,24.83
2022-11-13T06:24:14.834Z,29.73
2022-11-13T06:26:42.854Z,31.00
2022-11-13T06:29:12.997Z,25.75
2022-11-13T06:31:40.835Z,21.90
2022-11-13T06:34:08.798Z,22.15
2022-11-13T06:36:38.113Z,28.05
2022-11-13T06:39:07.605Z,25.33
2022-11-13T06:41:38.247Z,25.92
2022-11-13T06:44:06.372Z,25.70
2022-11-13T06:46:34.359Z,26.38
2022-11-13T06:49:02.086Z,28.02
2022-11-13T06:51:31.401Z,26.60
2022-11-13T06:53:59.433Z,25.52
2022-11-13T06:56:27.561Z,26.77
2022-11-13T06:58:56.953Z,29.88
2022-11-13T07:01:26.717Z,29.15
2022-11-13T07:03:54.737Z,33.85
2022-11-13T07:06:24.267Z,32.03
2022-11-13T07:08:52.480Z,25.92
2022-11-13T07:11:22.339Z,26.05
2022-11-13T07:13:50.514Z,22.77
2022-11-13T07:16:19.984Z,27.02
2022-11-13T07:18:51.751Z,27.45
2022-11-13T07:21:20.057Z,27.42
2022-11-13T07:23:49.457Z,21.73
2022-11-13T07:26:17.333Z,19.73
2022-11-13T07:28:45.112Z,25.17
2022-11-13T07:31:14.256Z,19.55
2022-11-13T07:33:43.977Z,19.33
2022-11-13T07:36:12.073Z,24.45
2022-11-13T07:38:39.852Z,25.13
2022-11-13T07:41:08.381Z,20.88
2022-11-13T07:43:36.105Z,25.52
2022-11-13T07:46:03.889Z,25.92
2022-11-13T07:48:32.026Z,25.13
2022-11-13T07:51:02.867Z,34.90
2022-11-13T07:53:30.821Z,28.38
2022-11-13T07:56:02.177Z,18.20
2022-11-13T07:58:30.460Z,25.10
2022-11-13T08:01:03.224Z,23.42
2022-11-13T08:06:03.547Z,24.77
2022-11-13T08:08:31.641Z,23.90
2022-11-13T08:10:59.591Z,21.45
2022-11-13T08:13:27.356Z,22.42
2022-11-13T08:15:55.074Z,20.25
2022-11-13T08:18:22.800Z,22.58
2022-11-13T08:20:50.552Z,23.63
2022-11-13T08:23:19.693Z,26.80
2022-11-13T08:25:47.606Z,23.45
2022-11-13T08:28:15.559Z,25.25
2022-11-13T08:30:45.026Z,25.40
2022-11-13T08:33:12.872Z,34.50
2022-11-13T08:35:40.583Z,48.78
2022-11-13T08:38:10.131Z,26.20
2022-11-13T08:40:39.357Z,22.02
2022-11-13T08:43:07.111Z,26.45
2022-11-13T08:45:34.851Z,25.73
2022-11-13T08:48:03.095Z,23.77
2022-11-13T08:50:32.072Z,23.23
2022-11-13T08:53:01.381Z,22.70
2022-11-13T08:55:29.587Z,20.45
2022-11-13T08:58:01.821Z,22.25
2022-11-13T09:00:30.904Z,20.67
2022-11-13T09:02:59.865Z,23.20
2022-11-13T09:05:27.927Z,21.75
2022-11-13T09:07:58.138Z,23.98
2022-11-13T09:10:26.937Z,21.23
2022-11-13T09:12:59.061Z,23.88
2022-11-13T09:15:28.839Z,22.15
2022-11-13T09:18:00.592Z,21.70
2022-11-13T09:20:29.118Z,23.13
2022-11-13T09:23:00.612Z,22.23
2022-11-13T09:25:35.835Z,19.58
2022-11-13T09:28:05.623Z,23.67
2022-11-13T09:30:34.814Z,22.08
2022-11-13T09:33:02.878Z,19.95
2022-11-13T09:35:35.088Z,19.30
2022-11-13T09:38:07.870Z,19.30
2022-11-13T09:40:42.978Z,19.27
2022-11-13T09:43:22.468Z,18.88
2022-11-13T09:45:54.028Z,19.73
2022-11-13T09:48:30.195Z,20.40
2022-11-13T09:51:00.647Z,18.65
2022-11-13T09:53:35.456Z,19.38
2022-11-13T09:56:16.027Z,19.10
2022-11-13T09:58:47.991Z,18.90
2022-11-13T10:01:27.168Z,18.05
2022-11-13T10:04:04.212Z,16.27
2022-11-13T10:06:47.835Z,18.83
2022-11-13T10:09:26.161Z,16.88
2022-11-13T10:11:56.675Z,16.40
2022-11-13T10:14:30.267Z,15.93
2022-11-13T10:17:04.617Z,14.80
2022-11-13T10:19:43.658Z,14.82
2022-11-13T10:22:34.116Z,14.02
2022-11-13T10:25:11.665Z,14.75
2022-11-13T10:27:39.771Z,14.70
2022-11-13T10:30:15.199Z,13.70
2022-11-13T10:32:45.365Z,11.80
2022-11-13T10:35:38.187Z,11.50
2022-11-13T10:38:09.165Z,13.43
2022-11-13T10:40:39.607Z,11.68
2022-11-13T10:43:15.282Z,11.10
2022-11-13T10:45:43.698Z,11.15
2022-11-13T10:48:22.331Z,9.52
2022-11-13T10:50:58.752Z,9.05
2022-11-13T10:53:28.918Z,8.45
2022-11-13T10:55:58.661Z,7.25
2022-11-13T10:58:27.042Z,7.50
2022-11-13T11:00:54.994Z,7.07
2022-11-13T11:03:25.803Z,8.45
2022-11-13T11:05:55.490Z,7.40
2022-11-13T11:08:27.492Z,7.78
2022-11-13T11:11:16.343Z,8.68
2022-11-13T11:13:44.658Z,8.88
2022-11-13T11:16:19.292Z,7.00
2022-11-13T11:18:53.882Z,5.70
2022-11-13T11:21:24.821Z,6.50
2022-11-13T11:23:58.817Z,7.80
2022-11-13T11:26:33.639Z,5.95
2022-11-13T11:29:17.578Z,6.20
2022-11-13T11:31:51.466Z,6.43
2022-11-13T11:34:25.449Z,7.63
2022-11-13T11:36:58.753Z,5.05
2022-11-13T11:39:30.621Z,7.40
2022-11-13T11:42:06.855Z,5.70
2022-11-13T11:44:43.698Z,7.22
2022-11-13T11:47:16.099Z,5.93
2022-11-13T11:49:46.379Z,5.85
2022-11-13T11:52:30.209Z,5.47
2022-11-13T11:55:08.496Z,5.47
2022-11-13T11:57:49.573Z,5.25
2022-11-13T12:00:19.693Z,6.68
2022-11-13T12:03:14.927Z,6.70
2022-11-13T12:05:56.331Z,7.03
2022-11-13T12:08:35.112Z,5.68
2022-11-13T12:11:12.843Z,7.03
2022-11-13T12:13:51.547Z,7.88
2022-11-13T12:16:25.520Z,6.10
2022-11-13T12:19:01.540Z,8.45
2022-11-13T12:21:40.718Z,6.28
2022-11-13T12:24:43.577Z,6.20
2022-11-13T12:27:22.393Z,6.88
2022-11-13T12:30:02.561Z,6.18
2022-11-13T12:32:45.595Z,6.68
2022-11-13T12:35:17.832Z,6.55
2022-11-13T12:37:53.688Z,7.05
2022-11-13T12:40:29.385Z,6.20
2022-11-13T12:43:08.382Z,6.63
2022-11-13T12:45:50.832Z,6.43
2022-11-13T12:48:28.006Z,6.32
2022-11-13T12:51:01.347Z,8.35
2022-11-13T12:53:32.609Z,7.38
2022-11-13T12:56:02.685Z,6.65
2022-11-13T12:58:32.652Z,7.57
2022-11-13T13:01:06.735Z,7.35
2022-11-13T13:04:03.383Z,8.05
2022-11-13T13:06:47.474Z,6.32
2022-11-13T13:09:31.131Z,7.50
2022-11-13T13:12:07.982Z,6.85
2022-11-13T13:15:04.148Z,6.57
2022-11-13T13:17:31.853Z,6.03
2022-11-13T13:20:01.513Z,5.80
2022-11-13T13:22:33.169Z,5.30
2022-11-13T13:25:05.267Z,6.80
2022-11-13T13:27:38.464Z,6.47
2022-11-13T13:30:21.913Z,6.38
2022-11-13T13:32:58.709Z,6.22
2022-11-13T13:35:31.630Z,6.28
2022-11-13T13:38:07.019Z,6.90
2022-11-13T13:40:42.239Z,6.35
2022-11-13T13:43:29.320Z,5.57
2022-11-13T13:46:05.815Z,5.50
2022-11-13T13:48:37.751Z,4.90
2022-11-13T13:51:12.864Z,4.70
2022-11-13T13:53:40.585Z,4.65
2022-11-13T13:56:13.295Z,4.20
2022-11-13T13:58:41.723Z,4.85
2022-11-13T14:01:19.671Z,3.90
2022-11-13T14:03:48.150Z,3.85
2022-11-13T14:06:21.075Z,4.07
2022-11-13T14:08:49.376Z,3.78
2022-11-13T14:11:20.462Z,4.05
2022-11-13T14:13:49.505Z,4.40
2022-11-13T14:16:17.212Z,3.75
2022-11-13T14:18:45.012Z,3.88
2022-11-13T14:21:16.616Z,3.90
2022-11-13T14:23:47.996Z,4.47
2022-11-13T14:26:16.196Z,4.40
2022-11-13T14:28:53.386Z,4.30
2022-11-13T14:31:26.470Z,5.38
2022-11-13T14:33:54.376Z,5.53
2022-11-13T14:36:29.866Z,9.40
2022-11-13T14:38:58.201Z,9.05
2022-11-13T14:41:32.868Z,5.25
2022-11-13T14:44:02.837Z,4.32
2022-11-13T14:46:32.944Z,5.50
2022-11-13T14:49:00.942Z,5.57
2022-11-13T14:51:30.718Z,5.32
2022-11-13T14:54:07.447Z,4.38
2022-11-13T14:56:40.292Z,5.95
2022-11-13T14:59:14.444Z,4.28
2022-11-13T15:01:55.225Z,3.95
2022-11-13T15:04:23.372Z,4.20
2022-11-13T15:06:58.007Z,4.30
2022-11-13T15:09:26.373Z,4.80
2022-11-13T15:11:54.125Z,4.30
2022-11-13T15:14:23.761Z,5.45
2022-11-13T15:16:53.672Z,3.80
2022-11-13T15:19:28.205Z,3.78
2022-11-13T15:22:25.092Z,4.45
2022-11-13T15:24:44.217Z,4.95
2022-11-13T15:27:14.947Z,4.35
2022-11-13T15:29:44.537Z,4.50
2022-11-13T15:32:13.969Z,5.05
2022-11-13T15:34:41.685Z,4.93
2022-11-13T15:37:13.872Z,4.70
2022-11-13T15:39:41.583Z,4.63
2022-11-13T15:42:14.464Z,5.03
2022-11-13T15:44:42.251Z,5.15
2022-11-13T15:47:29.648Z,5.32
2022-11-13T15:50:13.005Z,4.85
2022-11-13T15:52:48.679Z,5.85
2022-11-13T15:55:29.955Z,5.60
2022-11-13T15:57:59.105Z,5.25
2022-11-13T16:00:28.527Z,5.00
2022-11-13T16:03:01.183Z,4.90
2022-11-13T16:05:31.572Z,5.43
2022-11-13T16:07:59.305Z,6.78
2022-11-13T16:10:27.381Z,6.22
2022-11-13T16:12:55.401Z,6.00
2022-11-13T16:15:23.267Z,6.70
2022-11-13T16:17:53.675Z,7.50
2022-11-13T16:20:22.749Z,6.20
2022-11-13T16:22:50.617Z,6.07
2022-11-13T16:25:20.313Z,6.78
2022-11-13T16:27:48.662Z,8.68
2022-11-13T16:30:20.047Z,10.75
2022-11-13T16:32:48.555Z,12.90
2022-11-13T16:35:17.577Z,16.20
2022-11-13T16:37:47.291Z,25.88
2022-11-13T16:40:21.701Z,44.35
2022-11-13T16:42:49.395Z,30.88
2022-11-13T16:45:18.090Z,10.23
2022-11-13T16:47:46.422Z,9.52
2022-11-13T16:50:17.097Z,8.63
2022-11-13T16:52:46.199Z,32.20
2022-11-13T16:55:14.043Z,25.27
2022-11-13T16:57:42.348Z,39.22
2022-11-13T17:00:15.207Z,9.60
2022-11-13T17:02:43.155Z,8.48
2022-11-13T17:05:13.565Z,8.15
2022-11-13T17:07:41.449Z,9.32
2022-11-13T17:13:01.685Z,10.23
2022-11-13T17:15:29.423Z,36.53
2022-11-13T17:17:58.747Z,19.40
2022-11-13T17:20:26.629Z,43.00
2022-11-13T17:22:54.289Z,38.45
2022-11-13T17:25:26.476Z,55.15
2022-11-13T17:27:54.301Z,92.57
2022-11-13T17:30:22.046Z,51.00
2022-11-13T17:32:49.798Z,80.28
2022-11-13T17:35:17.711Z,34.95
2022-11-13T17:37:45.391Z,267.20
2022-11-13T17:40:13.248Z,384.73
2022-11-13T17:42:43.147Z,43.38
2022-11-13T17:45:11.591Z,20.38
2022-11-13T17:47:39.393Z,19.30
2022-11-13T17:50:08.104Z,18.90
2022-11-13T17:52:35.918Z,26.92
2022-11-13T17:55:06.072Z,20.50
2022-11-13T17:57:34.382Z,18.95
2022-11-13T18:00:04.830Z,20.70
2022-11-13T18:02:34.112Z,23.73
2022-11-13T18:05:04.181Z,19.35
2022-11-13T18:07:32.427Z,17.75
2022-11-13T18:10:00.148Z,18.75
2022-11-13T18:12:27.899Z,15.00
2022-11-13T18:14:55.706Z,16.98
2022-11-13T18:17:26.669Z,16.00
2022-11-13T18:20:01.339Z,21.55
2022-11-13T18:22:29.972Z,21.88
2022-11-13T18:24:57.759Z,15.52
2022-11-13T18:27:26.037Z,27.10
2022-11-13T18:29:53.740Z,19.60
2022-11-13T18:32:21.669Z,16.40
2022-11-13T18:34:50.888Z,14.25
2022-11-13T18:37:18.663Z,20.90
2022-11-13T18:39:46.470Z,20.23
2022-11-13T18:42:14.214Z,33.38
2022-11-13T18:44:42.024Z,27.52
2022-11-13T18:47:09.774Z,37.65
2022-11-13T18:49:37.666Z,32.13
2022-11-13T18:52:08.199Z,20.67
2022-11-13T18:54:36.087Z,16.80
2022-11-13T18:57:04.182Z,14.60
2022-11-13T18:59:32.537Z,16.75
2022-11-13T19:02:00.493Z,22.85
2022-11-13T19:04:28.323Z,16.10
2022-11-13T19:06:56.102Z,15.88
2022-11-13T19:09:25.267Z,17.10
2022-11-13T19:11:55.085Z,34.47
2022-11-13T19:14:22.802Z,14.32
2022-11-13T19:16:50.513Z,19.27
2022-11-13T19:19:22.264Z,15.35
2022-11-13T19:21:51.229Z,14.10
2022-11-13T19:24:19.027Z,14.90
2022-11-13T19:26:52.367Z,36.92
2022-11-13T19:29:20.557Z,53.92
2022-11-13T19:31:48.764Z,48.05
2022-11-13T19:34:16.631Z,27.50
2022-11-13T19:36:45.089Z,28.70
2022-11-13T19:39:13.483Z,26.77
2022-11-13T19:41:41.237Z,23.67
2022-11-13T19:44:10.944Z,39.40
2022-11-13T19:46:38.668Z,20.33
2022-11-13T19:49:06.967Z,16.80
2022-11-13T19:51:34.696Z,11.75
2022-11-13T19:54:02.436Z,15.25
2022-11-13T19:56:30.226Z,46.38
2022-11-13T19:58:57.913Z,14.18
2022-11-13T20:01:28.839Z,37.05
2022-11-13T20:03:57.536Z,19.55
2022-11-13T20:06:26.441Z,9.60
2022-11-13T20:08:54.162Z,21.23
2022-11-13T20:11:21.912Z,17.20
2022-11-13T20:13:49.762Z,12.30
2022-11-13T20:16:20.848Z,14.15
2022-11-13T20:18:50.610Z,90.75
2022-11-13T20:21:24.475Z,25.73
2022-11-13T20:23:53.028Z,14.32
2022-11-13T20:26:20.733Z,54.40
2022-11-13T20:28:48.453Z,32.60
2022-11-13T20:31:19.515Z,53.58
2022-11-13T20:33:49.341Z,55.33
2022-11-13T20:36:18.568Z,24.75
2022-11-13T20:38:50.540Z,11.27
2022-11-13T20:41:20.530Z,16.80
2022-11-13T20:43:48.963Z,7.57
2022-11-13T20:46:18.430Z,7.70
2022-11-13T20:48:46.615Z,8.48
2022-11-13T20:51:17.339Z,7.45
2022-11-13T20:53:45.050Z,7.38
2022-11-13T20:56:13.137Z,8.85
2022-11-13T20:58:42.967Z,11.07
2022-11-13T21:01:12.679Z,9.90
2022-11-13T21:03:45.197Z,7.85
2022-11-13T21:08:45.521Z,10.75
2022-11-13T21:11:16.539Z,18.85
2022-11-13T21:13:44.473Z,15.98
2022-11-13T21:16:12.399Z,13.57
2022-11-13T21:18:40.134Z,16.90
2022-11-13T21:21:10.239Z,13.85
2022-11-13T21:23:38.585Z,13.30
2022-11-13T21:26:09.195Z,21.30
2022-11-13T21:28:37.497Z,31.23
2022-11-13T21:31:07.290Z,17.15
2022-11-13T21:33:37.664Z,33.20
2022-11-13T21:36:06.700Z,13.63
2022-11-13T21:38:34.749Z,9.45
2022-11-13T21:41:21.447Z,11.38
2022-11-13T21:43:51.278Z,13.52
2022-11-13T21:46:20.232Z,10.35
2022-11-13T21:48:48.068Z,10.15
2022-11-13T21:51:15.928Z,8.38
2022-11-13T21:53:43.899Z,10.45
2022-11-13T21:56:15.655Z,10.18
2022-11-13T21:58:44.465Z,9.60
2022-11-13T22:01:14.362Z,11.63
2022-11-13T22:03:42.339Z,9.38
2022-11-13T22:06:17.227Z,7.57
2022-11-13T22:08:46.117Z,15.38
2022-11-13T22:11:14.314Z,19.80
2022-11-13T22:13:41.998Z,11.18
2022-11-13T22:16:12.194Z,20.20
2022-11-13T22:18:41.416Z,13.23
2022-11-13T22:21:11.863Z,13.43
2022-11-13T22:23:39.826Z,17.85
2022-11-13T22:26:09.204Z,26.30
2022-11-13T22:28:38.608Z,36.15
2022-11-13T22:31:07.432Z,30.55
2022-11-13T22:33:37.111Z,19.27
2022-11-13T22:36:08.630Z,14.68
2022-11-13T22:38:37.193Z,14.75
2022-11-13T22:41:06.438Z,11.05
2022-11-13T22:43:35.560Z,9.90
2022-11-13T22:46:05.013Z,11.75
2022-11-13T22:48:33.162Z,9.77
2022-11-13T22:51:07.731Z,10.15
2022-11-13T22:53:35.443Z,10.45
2022-11-13T22:56:04.651Z,9.23
2022-11-13T22:58:32.470Z,8.40
2022-11-13T23:01:07.559Z,8.00
2022-11-13T23:03:38.371Z,8.75
2022-11-13T23:06:08.726Z,8.82
2022-11-13T23:08:38.882Z,8.48
2022-11-13T23:11:07.554Z,10.80
2022-11-13T23:13:35.613Z,10.13
2022-11-13T23:16:03.804Z,8.85
2022-11-13T23:18:32.601Z,9.95
2022-11-13T23:21:03.393Z,8.90
2022-11-13T23:23:33.049Z,9.82
2022-11-13T23:26:03.411Z,9.07
2022-11-13T23:28:31.810Z,10.07
2022-11-13T23:30:59.822Z,9.50
2022-11-13T23:33:27.753Z,9.45
2022-11-13T23:35:55.474Z,10.20
2022-11-13T23:38:23.476Z,11.07
2022-11-13T23:40:55.881Z,9.77
2022-11-13T23:43:36.477Z,10.30
2022-11-13T23:46:12.190Z,9.95
2022-11-13T23:48:40.312Z,10.40
2022-11-13T23:51:08.307Z,10.70
2022-11-13T23:53:36.003Z,10.77
2022-11-13T23:56:05.608Z,9.90
2022-11-13T23:58:33.634Z,10.13
